sensor_id;sensor_type;location;lat;lon;timestamp;temperature;humidity
29363;DHT22;16349;53.672;10.014;2023-02-28T00:00:55;3.80;99.90
29363;DHT22;16349;53.672;10.014;2023-02-28T00:03:22;3.70;99.90
29363;DHT22;16349;53.672;10.014;2023-02-28T00:05:48;3.70;99.90
29363;DHT22;16349;53.672;10.014;2023-02-28T00:08:15;3.70;99.90
29363;DHT22;16349;53.672;10.014;2023-02-28T00:10:43;3.70;99.90
29363;DHT22;16349;53.672;10.014;2023-02-28T00:13:34;3.70;99.90
29363;DHT22;16349;53.672;10.014;2023-02-28T00:16:02;3.70;99.90
29363;DHT22;16349;53.672;10.014;2023-02-28T00:18:29;3.70;99.90
29363;DHT22;16349;53.672;10.014;2023-02-28T00:20:56;3.70;99.90
29363;DHT22;16349;53.672;10.014;2023-02-28T00:23:23;3.70;99.90
29363;DHT22;16349;53.672;10.014;2023-02-28T00:25:50;3.70;99.90
29363;DHT22;16349;53.672;10.014;2023-02-28T00:28:17;3.60;99.90
29363;DHT22;16349;53.672;10.014;2023-02-28T00:30:46;3.60;99.90
29363;DHT22;16349;53.672;10.014;2023-02-28T00:33:12;3.50;99.90
29363;DHT22;16349;53.672;10.014;2023-02-28T00:35:39;3.50;99.90
29363;DHT22;16349;53.672;10.014;2023-02-28T00:38:08;3.40;99.90
29363;DHT22;16349;53.672;10.014;2023-02-28T00:40:35;3.40;99.90
29363;DHT22;16349;53.672;10.014;2023-02-28T00:43:02;3.40;99.90
29363;DHT22;16349;53.672;10.014;2023-02-28T00:45:30;3.30;99.90
29363;DHT22;16349;53.672;10.014;2023-02-28T00:47:58;3.30;99.90
29363;DHT22;16349;53.672;10.014;2023-02-28T00:50:25;3.20;99.90
29363;DHT22;16349;53.672;10.014;2023-02-28T00:52:51;3.20;99.90
29363;DHT22;16349;53.672;10.014;2023-02-28T00:55:19;3.20;99.90
29363;DHT22;16349;53.672;10.014;2023-02-28T00:57:47;3.20;99.90
29363;DHT22;16349;53.672;10.014;2023-02-28T01:00:15;3.20;99.90
29363;DHT22;16349;53.672;10.014;2023-02-28T01:02:42;3.20;99.90
29363;DHT22;16349;53.672;10.014;2023-02-28T01:05:10;3.20;99.90
29363;DHT22;16349;53.672;10.014;2023-02-28T01:07:37;3.20;99.90
29363;DHT22;16349;53.672;10.014;2023-02-28T01:10:05;3.20;99.90
29363;DHT22;16349;53.672;10.014;2023-02-28T01:12:32;3.20;99.90
29363;DHT22;16349;53.672;10.014;2023-02-28T01:14:59;3.20;99.90
29363;DHT22;16349;53.672;10.014;2023-02-28T01:17:26;3.10;99.90
29363;DHT22;16349;53.672;10.014;2023-02-28T01:19:53;3.20;99.90
29363;DHT22;16349;53.672;10.014;2023-02-28T01:22:22;3.10;99.90
29363;DHT22;16349;53.672;10.014;2023-02-28T01:24:49;3.10;99.90
29363;DHT22;16349;53.672;10.014;2023-02-28T01:27:16;3.10;99.90
29363;DHT22;16349;53.672;10.014;2023-02-28T01:29:42;3.10;99.90
29363;DHT22;16349;53.672;10.014;2023-02-28T01:32:10;3.10;99.90
29363;DHT22;16349;53.672;10.014;2023-02-28T01:34:37;3.10;99.90
29363;DHT22;16349;53.672;10.014;2023-02-28T01:37:05;3.00;99.90
29363;DHT22;16349;53.672;10.014;2023-02-28T01:39:33;3.00;99.90
29363;DHT22;16349;53.672;10.014;2023-02-28T01:42:00;3.00;99.90
29363;DHT22;16349;53.672;10.014;2023-02-28T01:44:57;3.00;99.90
29363;DHT22;16349;53.672;10.014;2023-02-28T01:47:43;2.90;99.90
29363;DHT22;16349;53.672;10.014;2023-02-28T01:50:15;2.80;99.90
29363;DHT22;16349;53.672;10.014;2023-02-28T01:52:44;2.80;99.90
29363;DHT22;16349;53.672;10.014;2023-02-28T01:55:15;2.80;99.90
29363;DHT22;16349;53.672;10.014;2023-02-28T01:57:48;2.80;99.90
29363;DHT22;16349;53.672;10.014;2023-02-28T02:00:23;2.80;99.90
29363;DHT22;16349;53.672;10.014;2023-02-28T02:02:54;2.80;99.90
29363;DHT22;16349;53.672;10.014;2023-02-28T02:05:23;2.80;99.90
29363;DHT22;16349;53.672;10.014;2023-02-28T02:07:52;2.80;99.90
29363;DHT22;16349;53.672;10.014;2023-02-28T02:10:27;2.80;99.90
29363;DHT22;16349;53.672;10.014;2023-02-28T02:13:08;2.80;99.90
29363;DHT22;16349;53.672;10.014;2023-02-28T02:15:42;2.80;99.90
29363;DHT22;16349;53.672;10.014;2023-02-28T02:18:19;2.80;99.90
29363;DHT22;16349;53.672;10.014;2023-02-28T02:21:13;2.80;99.90
29363;DHT22;16349;53.672;10.014;2023-02-28T02:24:03;2.80;99.90
29363;DHT22;16349;53.672;10.014;2023-02-28T02:26:50;2.70;99.90
29363;DHT22;16349;53.672;10.014;2023-02-28T02:29:47;2.70;99.90
29363;DHT22;16349;53.672;10.014;2023-02-28T02:35:24;2.70;99.90
29363;DHT22;16349;53.672;10.014;2023-02-28T02:38:00;2.60;99.90
29363;DHT22;16349;53.672;10.014;2023-02-28T02:40:37;2.60;99.90
29363;DHT22;16349;53.672;10.014;2023-02-28T02:43:08;2.60;99.90
29363;DHT22;16349;53.672;10.014;2023-02-28T02:45:42;2.60;99.90
29363;DHT22;16349;53.672;10.014;2023-02-28T02:48:13;2.60;99.90
29363;DHT22;16349;53.672;10.014;2023-02-28T02:50:46;2.60;99.90
29363;DHT22;16349;53.672;10.014;2023-02-28T02:53:14;2.60;99.90
29363;DHT22;16349;53.672;10.014;2023-02-28T02:55:44;2.60;99.90
29363;DHT22;16349;53.672;10.014;2023-02-28T02:58:19;2.60;99.90
29363;DHT22;16349;53.672;10.014;2023-02-28T03:00:50;2.60;99.90
29363;DHT22;16349;53.672;10.014;2023-02-28T03:03:19;2.50;99.90
29363;DHT22;16349;53.672;10.014;2023-02-28T03:05:56;2.50;99.90
29363;DHT22;16349;53.672;10.014;2023-02-28T03:08:23;2.50;99.90
29363;DHT22;16349;53.672;10.014;2023-02-28T03:10:57;2.50;99.90
29363;DHT22;16349;53.672;10.014;2023-02-28T03:16:36;2.50;99.90
29363;DHT22;16349;53.672;10.014;2023-02-28T03:19:16;2.50;99.90
29363;DHT22;16349;53.672;10.014;2023-02-28T03:21:57;2.40;99.90
29363;DHT22;16349;53.672;10.014;2023-02-28T03:24:54;2.40;99.90
29363;DHT22;16349;53.672;10.014;2023-02-28T03:27:24;2.40;99.90
29363;DHT22;16349;53.672;10.014;2023-02-28T03:29:58;2.30;99.90
29363;DHT22;16349;53.672;10.014;2023-02-28T03:32:29;2.30;99.90
29363;DHT22;16349;53.672;10.014;2023-02-28T03:35:03;2.20;99.90
29363;DHT22;16349;53.672;10.014;2023-02-28T03:37:56;2.20;99.90
29363;DHT22;16349;53.672;10.014;2023-02-28T03:40:30;2.20;99.90
29363;DHT22;16349;53.672;10.014;2023-02-28T03:43:01;2.20;99.90
29363;DHT22;16349;53.672;10.014;2023-02-28T03:45:30;2.10;99.90
29363;DHT22;16349;53.672;10.014;2023-02-28T03:48:02;2.10;99.90
29363;DHT22;16349;53.672;10.014;2023-02-28T03:50:34;2.00;99.90
29363;DHT22;16349;53.672;10.014;2023-02-28T03:53:06;2.00;99.90
29363;DHT22;16349;53.672;10.014;2023-02-28T03:55:39;2.00;99.90
29363;DHT22;16349;53.672;10.014;2023-02-28T03:58:12;2.00;99.90
29363;DHT22;16349;53.672;10.014;2023-02-28T04:00:47;2.00;99.90
29363;DHT22;16349;53.672;10.014;2023-02-28T04:03:16;1.90;99.90
29363;DHT22;16349;53.672;10.014;2023-02-28T04:05:50;1.80;99.90
29363;DHT22;16349;53.672;10.014;2023-02-28T04:08:37;1.70;99.90
29363;DHT22;16349;53.672;10.014;2023-02-28T04:11:15;1.70;99.90
29363;DHT22;16349;53.672;10.014;2023-02-28T04:13:43;1.70;99.90
29363;DHT22;16349;53.672;10.014;2023-02-28T04:16:10;1.60;99.90
29363;DHT22;16349;53.672;10.014;2023-02-28T04:18:37;1.50;99.90
29363;DHT22;16349;53.672;10.014;2023-02-28T04:21:25;1.50;99.90
29363;DHT22;16349;53.672;10.014;2023-02-28T04:24:19;1.40;99.90
29363;DHT22;16349;53.672;10.014;2023-02-28T04:26:47;1.30;99.90
29363;DHT22;16349;53.672;10.014;2023-02-28T04:29:19;1.30;99.90
29363;DHT22;16349;53.672;10.014;2023-02-28T04:31:46;1.20;99.90
29363;DHT22;16349;53.672;10.014;2023-02-28T04:34:12;1.10;99.90
29363;DHT22;16349;53.672;10.014;2023-02-28T04:36:40;1.00;99.90
29363;DHT22;16349;53.672;10.014;2023-02-28T04:39:07;1.00;99.90
29363;DHT22;16349;53.672;10.014;2023-02-28T04:41:36;1.00;99.90
29363;DHT22;16349;53.672;10.014;2023-02-28T04:44:04;1.00;99.90
29363;DHT22;16349;53.672;10.014;2023-02-28T04:46:30;0.90;99.90
29363;DHT22;16349;53.672;10.014;2023-02-28T04:48:58;0.90;99.90
29363;DHT22;16349;53.672;10.014;2023-02-28T04:51:25;0.80;99.90
29363;DHT22;16349;53.672;10.014;2023-02-28T04:53:52;0.70;99.90
29363;DHT22;16349;53.672;10.014;2023-02-28T04:56:20;0.60;99.90
29363;DHT22;16349;53.672;10.014;2023-02-28T04:58:49;0.60;99.90
29363;DHT22;16349;53.672;10.014;2023-02-28T05:01:19;0.50;99.90
29363;DHT22;16349;53.672;10.014;2023-02-28T05:03:46;0.50;99.90
29363;DHT22;16349;53.672;10.014;2023-02-28T05:06:14;0.40;99.90
29363;DHT22;16349;53.672;10.014;2023-02-28T05:08:41;0.40;99.90
29363;DHT22;16349;53.672;10.014;2023-02-28T05:11:14;0.40;99.90
29363;DHT22;16349;53.672;10.014;2023-02-28T05:13:42;0.40;99.90
29363;DHT22;16349;53.672;10.014;2023-02-28T05:16:10;0.30;99.90
29363;DHT22;16349;53.672;10.014;2023-02-28T05:18:37;0.20;99.90
29363;DHT22;16349;53.672;10.014;2023-02-28T05:21:04;0.20;99.90
29363;DHT22;16349;53.672;10.014;2023-02-28T05:23:31;0.20;99.90
29363;DHT22;16349;53.672;10.014;2023-02-28T05:25:58;0.20;99.90
29363;DHT22;16349;53.672;10.014;2023-02-28T05:28:25;0.20;99.90
29363;DHT22;16349;53.672;10.014;2023-02-28T05:30:53;0.20;99.90
29363;DHT22;16349;53.672;10.014;2023-02-28T05:33:21;0.20;99.90
29363;DHT22;16349;53.672;10.014;2023-02-28T05:35:47;0.10;99.90
29363;DHT22;16349;53.672;10.014;2023-02-28T05:38:14;0.10;99.90
29363;DHT22;16349;53.672;10.014;2023-02-28T05:40:42;0.00;99.90
29363;DHT22;16349;53.672;10.014;2023-02-28T05:43:10;0.00;99.90
29363;DHT22;16349;53.672;10.014;2023-02-28T05:45:37;0.00;99.90
29363;DHT22;16349;53.672;10.014;2023-02-28T05:48:04;0.00;99.90
29363;DHT22;16349;53.672;10.014;2023-02-28T05:50:32;0.00;99.90
29363;DHT22;16349;53.672;10.014;2023-02-28T05:52:59;0.00;99.90
29363;DHT22;16349;53.672;10.014;2023-02-28T05:55:26;0.00;99.90
29363;DHT22;16349;53.672;10.014;2023-02-28T05:57:53;-0.10;99.90
29363;DHT22;16349;53.672;10.014;2023-02-28T06:00:22;-0.10;99.90
29363;DHT22;16349;53.672;10.014;2023-02-28T06:02:49;-0.20;99.90
29363;DHT22;16349;53.672;10.014;2023-02-28T06:05:17;-0.20;99.90
29363;DHT22;16349;53.672;10.014;2023-02-28T06:07:46;-0.30;99.90
29363;DHT22;16349;53.672;10.014;2023-02-28T06:10:13;-0.30;99.90
29363;DHT22;16349;53.672;10.014;2023-02-28T06:12:41;-0.30;99.90
29363;DHT22;16349;53.672;10.014;2023-02-28T06:15:11;-0.30;99.90
29363;DHT22;16349;53.672;10.014;2023-02-28T06:17:41;-0.30;99.90
29363;DHT22;16349;53.672;10.014;2023-02-28T06:20:10;-0.40;99.90
29363;DHT22;16349;53.672;10.014;2023-02-28T06:22:38;-0.50;99.90
29363;DHT22;16349;53.672;10.014;2023-02-28T06:25:07;-0.50;99.90
29363;DHT22;16349;53.672;10.014;2023-02-28T06:27:34;-0.50;99.90
29363;DHT22;16349;53.672;10.014;2023-02-28T06:30:01;-0.40;99.90
29363;DHT22;16349;53.672;10.014;2023-02-28T06:32:28;-0.40;99.90
29363;DHT22;16349;53.672;10.014;2023-02-28T06:34:55;-0.40;99.90
29363;DHT22;16349;53.672;10.014;2023-02-28T06:37:24;-0.40;99.90
29363;DHT22;16349;53.672;10.014;2023-02-28T06:39:54;-0.30;99.90
29363;DHT22;16349;53.672;10.014;2023-02-28T06:42:23;-0.30;99.90
29363;DHT22;16349;53.672;10.014;2023-02-28T06:44:55;-0.30;99.90
29363;DHT22;16349;53.672;10.014;2023-02-28T06:47:22;-0.30;99.90
29363;DHT22;16349;53.672;10.014;2023-02-28T06:49:49;-0.40;99.90
29363;DHT22;16349;53.672;10.014;2023-02-28T06:52:16;-0.40;99.90
29363;DHT22;16349;53.672;10.014;2023-02-28T06:54:42;-0.30;99.90
29363;DHT22;16349;53.672;10.014;2023-02-28T06:57:09;-0.30;99.90
29363;DHT22;16349;53.672;10.014;2023-02-28T06:59:37;-0.20;99.90
29363;DHT22;16349;53.672;10.014;2023-02-28T07:02:04;-0.20;99.90
29363;DHT22;16349;53.672;10.014;2023-02-28T07:04:33;-0.20;99.90
29363;DHT22;16349;53.672;10.014;2023-02-28T07:07:01;-0.10;99.90
29363;DHT22;16349;53.672;10.014;2023-02-28T07:09:29;-0.10;99.90
29363;DHT22;16349;53.672;10.014;2023-02-28T07:11:56;0.00;99.90
29363;DHT22;16349;53.672;10.014;2023-02-28T07:14:23;0.00;99.90
29363;DHT22;16349;53.672;10.014;2023-02-28T07:16:51;0.10;99.90
29363;DHT22;16349;53.672;10.014;2023-02-28T07:19:37;0.20;99.90
29363;DHT22;16349;53.672;10.014;2023-02-28T07:22:03;0.20;99.90
29363;DHT22;16349;53.672;10.014;2023-02-28T07:24:32;0.30;99.90
29363;DHT22;16349;53.672;10.014;2023-02-28T07:26:59;0.50;99.90
29363;DHT22;16349;53.672;10.014;2023-02-28T07:29:26;0.50;99.90
29363;DHT22;16349;53.672;10.014;2023-02-28T07:31:56;0.60;99.90
29363;DHT22;16349;53.672;10.014;2023-02-28T07:34:23;0.70;99.90
29363;DHT22;16349;53.672;10.014;2023-02-28T07:36:53;0.80;99.90
29363;DHT22;16349;53.672;10.014;2023-02-28T07:39:20;0.90;99.90
29363;DHT22;16349;53.672;10.014;2023-02-28T07:41:46;0.90;99.90
29363;DHT22;16349;53.672;10.014;2023-02-28T07:44:14;1.00;99.90
29363;DHT22;16349;53.672;10.014;2023-02-28T07:46:41;1.10;99.90
29363;DHT22;16349;53.672;10.014;2023-02-28T07:49:09;1.20;99.90
29363;DHT22;16349;53.672;10.014;2023-02-28T07:51:35;1.20;99.90
29363;DHT22;16349;53.672;10.014;2023-02-28T07:54:03;1.40;99.90
29363;DHT22;16349;53.672;10.014;2023-02-28T07:56:30;1.50;99.90
29363;DHT22;16349;53.672;10.014;2023-02-28T07:58:58;1.60;99.90
29363;DHT22;16349;53.672;10.014;2023-02-28T08:01:26;1.70;99.90
29363;DHT22;16349;53.672;10.014;2023-02-28T08:04:16;1.80;99.90
29363;DHT22;16349;53.672;10.014;2023-02-28T08:06:44;1.90;99.90
29363;DHT22;16349;53.672;10.014;2023-02-28T08:09:11;2.00;99.90
29363;DHT22;16349;53.672;10.014;2023-02-28T08:11:38;2.10;99.90
29363;DHT22;16349;53.672;10.014;2023-02-28T08:14:06;2.20;99.90
29363;DHT22;16349;53.672;10.014;2023-02-28T08:16:32;2.40;99.90
29363;DHT22;16349;53.672;10.014;2023-02-28T08:18:59;2.50;99.90
29363;DHT22;16349;53.672;10.014;2023-02-28T08:21:28;2.60;99.90
29363;DHT22;16349;53.672;10.014;2023-02-28T08:23:55;2.70;99.90
29363;DHT22;16349;53.672;10.014;2023-02-28T08:26:23;2.80;99.90
29363;DHT22;16349;53.672;10.014;2023-02-28T08:28:50;2.90;99.90
29363;DHT22;16349;53.672;10.014;2023-02-28T08:31:18;3.00;99.90
29363;DHT22;16349;53.672;10.014;2023-02-28T08:33:45;3.00;99.90
29363;DHT22;16349;53.672;10.014;2023-02-28T08:36:14;3.10;99.90
29363;DHT22;16349;53.672;10.014;2023-02-28T08:38:44;3.20;99.90
29363;DHT22;16349;53.672;10.014;2023-02-28T08:41:12;3.30;99.90
29363;DHT22;16349;53.672;10.014;2023-02-28T08:43:40;3.40;99.90
29363;DHT22;16349;53.672;10.014;2023-02-28T08:46:11;3.40;99.90
29363;DHT22;16349;53.672;10.014;2023-02-28T08:48:39;3.50;99.90
29363;DHT22;16349;53.672;10.014;2023-02-28T08:51:07;3.60;99.90
29363;DHT22;16349;53.672;10.014;2023-02-28T08:53:35;3.70;99.90
29363;DHT22;16349;53.672;10.014;2023-02-28T08:56:06;3.80;99.90
29363;DHT22;16349;53.672;10.014;2023-02-28T08:58:34;3.90;99.90
29363;DHT22;16349;53.672;10.014;2023-02-28T09:01:08;4.00;99.90
29363;DHT22;16349;53.672;10.014;2023-02-28T09:03:36;4.20;99.90
29363;DHT22;16349;53.672;10.014;2023-02-28T09:06:03;4.30;99.90
29363;DHT22;16349;53.672;10.014;2023-02-28T09:08:31;4.40;99.90
29363;DHT22;16349;53.672;10.014;2023-02-28T09:10:58;4.50;99.90
29363;DHT22;16349;53.672;10.014;2023-02-28T09:13:27;4.50;99.90
29363;DHT22;16349;53.672;10.014;2023-02-28T09:15:56;4.50;99.90
29363;DHT22;16349;53.672;10.014;2023-02-28T09:18:24;4.60;99.90
29363;DHT22;16349;53.672;10.014;2023-02-28T09:20:52;4.60;99.90
29363;DHT22;16349;53.672;10.014;2023-02-28T09:23:19;4.70;99.90
29363;DHT22;16349;53.672;10.014;2023-02-28T09:25:46;4.80;99.90
29363;DHT22;16349;53.672;10.014;2023-02-28T09:28:13;4.80;99.90
29363;DHT22;16349;53.672;10.014;2023-02-28T09:30:44;4.90;99.90
29363;DHT22;16349;53.672;10.014;2023-02-28T09:33:11;5.00;99.90
29363;DHT22;16349;53.672;10.014;2023-02-28T09:35:39;5.00;99.90
29363;DHT22;16349;53.672;10.014;2023-02-28T09:38:06;5.10;99.90
29363;DHT22;16349;53.672;10.014;2023-02-28T09:40:36;5.20;99.90
29363;DHT22;16349;53.672;10.014;2023-02-28T09:43:04;5.30;99.90
29363;DHT22;16349;53.672;10.014;2023-02-28T09:45:35;5.30;99.90
29363;DHT22;16349;53.672;10.014;2023-02-28T09:48:10;5.30;99.90
29363;DHT22;16349;53.672;10.014;2023-02-28T09:50:41;5.20;99.90
29363;DHT22;16349;53.672;10.014;2023-02-28T09:53:16;5.20;99.90
29363;DHT22;16349;53.672;10.014;2023-02-28T09:55:48;5.30;99.90
29363;DHT22;16349;53.672;10.014;2023-02-28T09:58:20;5.30;99.90
29363;DHT22;16349;53.672;10.014;2023-02-28T10:00:56;5.40;99.90
29363;DHT22;16349;53.672;10.014;2023-02-28T10:03:32;5.50;99.90
29363;DHT22;16349;53.672;10.014;2023-02-28T10:06:07;5.50;99.90
29363;DHT22;16349;53.672;10.014;2023-02-28T10:08:41;5.50;99.90
29363;DHT22;16349;53.672;10.014;2023-02-28T10:11:13;5.50;99.90
29363;DHT22;16349;53.672;10.014;2023-02-28T10:13:48;5.50;99.90
29363;DHT22;16349;53.672;10.014;2023-02-28T10:16:22;5.50;99.90
29363;DHT22;16349;53.672;10.014;2023-02-28T10:18:54;5.40;99.90
29363;DHT22;16349;53.672;10.014;2023-02-28T10:21:26;5.50;99.90
29363;DHT22;16349;53.672;10.014;2023-02-28T10:24:02;5.60;99.90
29363;DHT22;16349;53.672;10.014;2023-02-28T10:26:31;5.70;99.90
29363;DHT22;16349;53.672;10.014;2023-02-28T10:28:59;5.80;99.90
29363;DHT22;16349;53.672;10.014;2023-02-28T10:31:26;5.80;99.90
29363;DHT22;16349;53.672;10.014;2023-02-28T10:33:55;5.80;99.90
29363;DHT22;16349;53.672;10.014;2023-02-28T10:36:23;5.70;99.90
29363;DHT22;16349;53.672;10.014;2023-02-28T10:38:50;5.70;99.90
29363;DHT22;16349;53.672;10.014;2023-02-28T10:41:27;5.70;99.90
29363;DHT22;16349;53.672;10.014;2023-02-28T10:44:14;5.70;99.90
29363;DHT22;16349;53.672;10.014;2023-02-28T10:46:41;5.70;99.90
29363;DHT22;16349;53.672;10.014;2023-02-28T10:49:15;5.80;99.90
29363;DHT22;16349;53.672;10.014;2023-02-28T10:51:43;5.90;99.90
29363;DHT22;16349;53.672;10.014;2023-02-28T10:54:16;5.90;99.90
29363;DHT22;16349;53.672;10.014;2023-02-28T10:56:43;5.90;99.90
29363;DHT22;16349;53.672;10.014;2023-02-28T10:59:26;6.00;99.90
29363;DHT22;16349;53.672;10.014;2023-02-28T11:01:54;6.10;99.90
29363;DHT22;16349;53.672;10.014;2023-02-28T11:04:35;6.10;99.90
29363;DHT22;16349;53.672;10.014;2023-02-28T11:07:05;6.10;99.90
29363;DHT22;16349;53.672;10.014;2023-02-28T11:09:34;6.10;99.90
29363;DHT22;16349;53.672;10.014;2023-02-28T11:12:02;6.10;99.90
29363;DHT22;16349;53.672;10.014;2023-02-28T11:14:34;6.20;99.90
29363;DHT22;16349;53.672;10.014;2023-02-28T11:17:14;6.40;99.90
29363;DHT22;16349;53.672;10.014;2023-02-28T11:19:47;6.40;99.90
29363;DHT22;16349;53.672;10.014;2023-02-28T11:22:18;6.40;99.90
29363;DHT22;16349;53.672;10.014;2023-02-28T11:24:48;6.50;99.90
29363;DHT22;16349;53.672;10.014;2023-02-28T11:27:39;6.50;99.90
29363;DHT22;16349;53.672;10.014;2023-02-28T11:30:26;6.50;99.90
29363;DHT22;16349;53.672;10.014;2023-02-28T11:32:53;6.50;99.90
29363;DHT22;16349;53.672;10.014;2023-02-28T11:35:25;6.50;99.90
29363;DHT22;16349;53.672;10.014;2023-02-28T11:37:53;6.60;99.90
29363;DHT22;16349;53.672;10.014;2023-02-28T11:40:28;6.60;99.90
29363;DHT22;16349;53.672;10.014;2023-02-28T11:43:09;6.60;99.90
29363;DHT22;16349;53.672;10.014;2023-02-28T11:45:58;6.70;99.90
29363;DHT22;16349;53.672;10.014;2023-02-28T11:48:34;6.80;99.90
29363;DHT22;16349;53.672;10.014;2023-02-28T11:51:14;6.90;99.90
29363;DHT22;16349;53.672;10.014;2023-02-28T11:53:52;6.90;99.90
29363;DHT22;16349;53.672;10.014;2023-02-28T11:56:29;7.00;99.90
29363;DHT22;16349;53.672;10.014;2023-02-28T11:59:11;7.00;99.90
29363;DHT22;16349;53.672;10.014;2023-02-28T12:01:54;7.00;99.90
29363;DHT22;16349;53.672;10.014;2023-02-28T12:04:32;7.00;99.90
29363;DHT22;16349;53.672;10.014;2023-02-28T12:07:11;6.90;99.40
29363;DHT22;16349;53.672;10.014;2023-02-28T12:09:49;6.90;99.70
29363;DHT22;16349;53.672;10.014;2023-02-28T12:12:25;7.20;99.90
29363;DHT22;16349;53.672;10.014;2023-02-28T12:15:23;7.20;99.10
29363;DHT22;16349;53.672;10.014;2023-02-28T12:18:02;7.20;97.00
29363;DHT22;16349;53.672;10.014;2023-02-28T12:20:38;7.20;98.10
29363;DHT22;16349;53.672;10.014;2023-02-28T12:23:23;7.10;97.80
29363;DHT22;16349;53.672;10.014;2023-02-28T12:26:10;7.10;97.90
29363;DHT22;16349;53.672;10.014;2023-02-28T12:28:45;7.20;98.10
29363;DHT22;16349;53.672;10.014;2023-02-28T12:31:17;7.20;97.50
29363;DHT22;16349;53.672;10.014;2023-02-28T12:33:47;7.10;96.90
29363;DHT22;16349;53.672;10.014;2023-02-28T12:36:18;7.10;97.70
29363;DHT22;16349;53.672;10.014;2023-02-28T12:38:53;7.20;97.90
29363;DHT22;16349;53.672;10.014;2023-02-28T12:41:26;7.30;97.80
29363;DHT22;16349;53.672;10.014;2023-02-28T12:44:00;7.30;97.60
29363;DHT22;16349;53.672;10.014;2023-02-28T12:46:30;7.30;97.70
29363;DHT22;16349;53.672;10.014;2023-02-28T12:49:00;7.40;97.70
29363;DHT22;16349;53.672;10.014;2023-02-28T12:51:31;7.50;96.90
29363;DHT22;16349;53.672;10.014;2023-02-28T12:54:07;7.50;96.90
29363;DHT22;16349;53.672;10.014;2023-02-28T12:56:44;7.60;96.10
29363;DHT22;16349;53.672;10.014;2023-02-28T12:59:18;7.70;95.70
29363;DHT22;16349;53.672;10.014;2023-02-28T13:05:01;7.90;93.60
29363;DHT22;16349;53.672;10.014;2023-02-28T13:08:09;7.90;98.70
29363;DHT22;16349;53.672;10.014;2023-02-28T13:10:43;7.90;96.00
29363;DHT22;16349;53.672;10.014;2023-02-28T13:13:19;8.00;96.70
29363;DHT22;16349;53.672;10.014;2023-02-28T13:16:03;8.00;93.80
29363;DHT22;16349;53.672;10.014;2023-02-28T13:18:34;8.00;93.40
29363;DHT22;16349;53.672;10.014;2023-02-28T13:21:04;8.10;93.20
29363;DHT22;16349;53.672;10.014;2023-02-28T13:23:41;8.10;93.40
29363;DHT22;16349;53.672;10.014;2023-02-28T13:29:38;8.10;91.00
29363;DHT22;16349;53.672;10.014;2023-02-28T13:32:33;8.00;91.80
29363;DHT22;16349;53.672;10.014;2023-02-28T13:35:36;8.00;91.90
29363;DHT22;16349;53.672;10.014;2023-02-28T13:38:24;8.00;92.40
29363;DHT22;16349;53.672;10.014;2023-02-28T13:40:51;8.10;92.00
29363;DHT22;16349;53.672;10.014;2023-02-28T13:43:18;8.10;91.90
29363;DHT22;16349;53.672;10.014;2023-02-28T13:46:10;8.20;91.60
29363;DHT22;16349;53.672;10.014;2023-02-28T13:48:37;8.30;90.60
29363;DHT22;16349;53.672;10.014;2023-02-28T13:51:35;8.40;91.20
29363;DHT22;16349;53.672;10.014;2023-02-28T13:54:29;9.70;84.90
29363;DHT22;16349;53.672;10.014;2023-02-28T13:57:14;10.10;84.60
29363;DHT22;16349;53.672;10.014;2023-02-28T13:59:53;9.80;82.40
29363;DHT22;16349;53.672;10.014;2023-02-28T14:02:47;9.70;84.10
29363;DHT22;16349;53.672;10.014;2023-02-28T14:05:22;9.80;80.20
29363;DHT22;16349;53.672;10.014;2023-02-28T14:07:54;10.10;84.10
29363;DHT22;16349;53.672;10.014;2023-02-28T14:10:27;10.20;81.80
29363;DHT22;16349;53.672;10.014;2023-02-28T14:13:01;10.40;82.00
29363;DHT22;16349;53.672;10.014;2023-02-28T14:15:55;10.70;82.00
29363;DHT22;16349;53.672;10.014;2023-02-28T14:18:30;11.00;79.00
29363;DHT22;16349;53.672;10.014;2023-02-28T14:21:02;11.10;77.10
29363;DHT22;16349;53.672;10.014;2023-02-28T14:23:46;11.40;78.20
29363;DHT22;16349;53.672;10.014;2023-02-28T14:26:32;11.50;77.80
29363;DHT22;16349;53.672;10.014;2023-02-28T14:29:15;11.70;77.80
29363;DHT22;16349;53.672;10.014;2023-02-28T14:31:49;12.00;77.20
29363;DHT22;16349;53.672;10.014;2023-02-28T14:34:37;12.00;77.10
29363;DHT22;16349;53.672;10.014;2023-02-28T14:37:13;12.20;75.70
29363;DHT22;16349;53.672;10.014;2023-02-28T14:39:41;12.40;75.10
29363;DHT22;16349;53.672;10.014;2023-02-28T14:42:27;12.60;73.90
29363;DHT22;16349;53.672;10.014;2023-02-28T14:44:54;12.70;73.30
29363;DHT22;16349;53.672;10.014;2023-02-28T14:47:23;12.60;72.70
29363;DHT22;16349;53.672;10.014;2023-02-28T14:49:53;12.40;73.20
29363;DHT22;16349;53.672;10.014;2023-02-28T14:52:22;12.30;73.80
29363;DHT22;16349;53.672;10.014;2023-02-28T14:54:52;12.00;74.00
29363;DHT22;16349;53.672;10.014;2023-02-28T14:57:23;12.30;75.60
29363;DHT22;16349;53.672;10.014;2023-02-28T15:00:00;12.50;74.60
29363;DHT22;16349;53.672;10.014;2023-02-28T15:02:33;12.60;71.60
29363;DHT22;16349;53.672;10.014;2023-02-28T15:05:21;12.70;74.20
29363;DHT22;16349;53.672;10.014;2023-02-28T15:08:01;12.80;71.50
29363;DHT22;16349;53.672;10.014;2023-02-28T15:10:28;12.90;72.40
29363;DHT22;16349;53.672;10.014;2023-02-28T15:12:57;12.70;73.70
29363;DHT22;16349;53.672;10.014;2023-02-28T15:15:28;12.90;73.80
29363;DHT22;16349;53.672;10.014;2023-02-28T15:18:03;13.10;73.80
29363;DHT22;16349;53.672;10.014;2023-02-28T15:20:33;13.20;70.90
29363;DHT22;16349;53.672;10.014;2023-02-28T15:23:01;13.10;71.00
29363;DHT22;16349;53.672;10.014;2023-02-28T15:25:28;13.40;71.10
29363;DHT22;16349;53.672;10.014;2023-02-28T15:27:56;13.50;70.10
29363;DHT22;16349;53.672;10.014;2023-02-28T15:30:26;13.70;68.70
29363;DHT22;16349;53.672;10.014;2023-02-28T15:33:18;13.60;67.30
29363;DHT22;16349;53.672;10.014;2023-02-28T15:35:47;13.60;66.40
29363;DHT22;16349;53.672;10.014;2023-02-28T15:38:16;13.30;68.30
29363;DHT22;16349;53.672;10.014;2023-02-28T15:40:45;12.50;68.30
29363;DHT22;16349;53.672;10.014;2023-02-28T15:43:24;11.70;70.20
29363;DHT22;16349;53.672;10.014;2023-02-28T15:45:53;11.10;70.90
29363;DHT22;16349;53.672;10.014;2023-02-28T15:48:23;10.50;72.70
29363;DHT22;16349;53.672;10.014;2023-02-28T15:50:54;10.20;72.90
29363;DHT22;16349;53.672;10.014;2023-02-28T15:53:24;10.10;73.30
29363;DHT22;16349;53.672;10.014;2023-02-28T15:55:55;9.90;73.30
29363;DHT22;16349;53.672;10.014;2023-02-28T15:58:24;9.90;73.30
29363;DHT22;16349;53.672;10.014;2023-02-28T16:01:05;9.90;73.60
29363;DHT22;16349;53.672;10.014;2023-02-28T16:03:39;9.70;73.50
29363;DHT22;16349;53.672;10.014;2023-02-28T16:06:34;9.60;75.50
29363;DHT22;16349;53.672;10.014;2023-02-28T16:09:02;9.50;76.90
29363;DHT22;16349;53.672;10.014;2023-02-28T16:11:37;9.20;77.50